sensor_id;sensor_type;location;lat;lon;timestamp;pressure;altitude;pressure_sealevel;temperature;humidity
71384;BME280;67558;52.166;5.004;2023-04-26T00:02:12;102036.50;;;7.76;56.30
71384;BME280;67558;52.166;5.004;2023-04-26T00:04:38;102042.63;;;7.76;56.25
71384;BME280;67558;52.166;5.004;2023-04-26T00:07:05;102043.28;;;7.72;55.99
71384;BME280;67558;52.166;5.004;2023-04-26T00:09:30;102048.41;;;7.73;55.92
71384;BME280;67558;52.166;5.004;2023-04-26T00:11:57;101976.00;;;7.26;56.39
71384;BME280;67558;52.166;5.004;2023-04-26T00:14:23;102021.72;;;7.48;56.23
71384;BME280;67558;52.166;5.004;2023-04-26T00:16:48;102028.03;;;7.54;56.06
71384;BME280;67558;52.166;5.004;2023-04-26T00:19:14;102024.44;;;7.42;56.52
71384;BME280;67558;52.166;5.004;2023-04-26T00:21:41;102006.91;;;7.27;56.53
71384;BME280;67558;52.166;5.004;2023-04-26T00:24:07;102049.59;;;7.46;56.21
71384;BME280;67558;52.166;5.004;2023-04-26T00:26:34;102046.13;;;7.45;56.31
71384;BME280;67558;52.166;5.004;2023-04-26T00:29:20;102043.50;;;7.38;56.58
71384;BME280;67558;52.166;5.004;2023-04-26T00:31:45;102045.56;;;7.36;56.60
71384;BME280;67558;52.166;5.004;2023-04-26T00:34:11;102033.94;;;7.24;56.57
71384;BME280;67558;52.166;5.004;2023-04-26T00:36:37;102008.84;;;7.07;56.73
71384;BME280;67558;52.166;5.004;2023-04-26T00:39:03;102050.72;;;7.25;56.92
71384;BME280;67558;52.166;5.004;2023-04-26T00:41:28;102029.75;;;7.10;56.80
71384;BME280;67558;52.166;5.004;2023-04-26T00:43:54;102019.75;;;6.92;57.19
71384;BME280;67558;52.166;5.004;2023-04-26T00:46:20;101999.16;;;6.81;57.04
71384;BME280;67558;52.166;5.004;2023-04-26T00:48:46;102057.16;;;7.10;57.22
71384;BME280;67558;52.166;5.004;2023-04-26T00:51:13;102041.44;;;7.02;57.08
71384;BME280;67558;52.166;5.004;2023-04-26T00:53:41;102045.53;;;6.98;57.54
71384;BME280;67558;52.166;5.004;2023-04-26T00:56:12;102036.94;;;6.96;57.43
71384;BME280;67558;52.166;5.004;2023-04-26T00:58:38;102015.31;;;6.79;57.54
71384;BME280;67558;52.166;5.004;2023-04-26T01:01:04;102024.69;;;6.95;57.20
71384;BME280;67558;52.166;5.004;2023-04-26T01:03:30;102034.88;;;6.98;57.33
71384;BME280;67558;52.166;5.004;2023-04-26T01:05:57;102024.88;;;6.93;57.70
71384;BME280;67558;52.166;5.004;2023-04-26T01:08:22;102035.69;;;6.98;57.33
71384;BME280;67558;52.166;5.004;2023-04-26T01:10:51;102023.22;;;6.92;57.91
71384;BME280;67558;52.166;5.004;2023-04-26T01:13:17;102040.63;;;7.02;57.89
71384;BME280;67558;52.166;5.004;2023-04-26T01:15:44;102028.75;;;6.97;57.85
71384;BME280;67558;52.166;5.004;2023-04-26T01:18:11;102045.69;;;7.03;57.38
71384;BME280;67558;52.166;5.004;2023-04-26T01:20:39;102051.25;;;7.02;57.52
71384;BME280;67558;52.166;5.004;2023-04-26T01:23:06;102010.22;;;6.78;57.84
71384;BME280;67558;52.166;5.004;2023-04-26T01:25:33;102042.25;;;6.96;57.58
71384;BME280;67558;52.166;5.004;2023-04-26T01:28:01;102035.94;;;6.90;57.80
71384;BME280;67558;52.166;5.004;2023-04-26T01:30:26;102050.06;;;6.91;57.91
71384;BME280;67558;52.166;5.004;2023-04-26T01:32:52;102039.84;;;6.88;58.11
71384;BME280;67558;52.166;5.004;2023-04-26T01:35:18;102048.84;;;6.87;58.43
71384;BME280;67558;52.166;5.004;2023-04-26T01:37:44;102037.81;;;6.76;57.91
71384;BME280;67558;52.166;5.004;2023-04-26T01:40:10;102052.94;;;6.83;58.12
71384;BME280;67558;52.166;5.004;2023-04-26T01:42:36;102049.69;;;6.81;58.00
71384;BME280;67558;52.166;5.004;2023-04-26T01:45:05;102035.41;;;6.68;58.11
71384;BME280;67558;52.166;5.004;2023-04-26T01:47:32;102042.75;;;6.73;58.38
71384;BME280;67558;52.166;5.004;2023-04-26T01:49:58;102019.47;;;6.62;58.19
71384;BME280;67558;52.166;5.004;2023-04-26T01:52:25;102036.44;;;6.67;58.33
71384;BME280;67558;52.166;5.004;2023-04-26T01:54:52;102022.72;;;6.64;58.32
71384;BME280;67558;52.166;5.004;2023-04-26T01:57:18;102032.34;;;6.65;58.35
71384;BME280;67558;52.166;5.004;2023-04-26T01:59:44;102029.69;;;6.58;58.62
71384;BME280;67558;52.166;5.004;2023-04-26T02:02:09;102044.00;;;6.64;58.12
71384;BME280;67558;52.166;5.004;2023-04-26T02:04:35;102042.78;;;6.60;58.22
71384;BME280;67558;52.166;5.004;2023-04-26T02:07:00;102037.47;;;6.53;58.09
71384;BME280;67558;52.166;5.004;2023-04-26T02:09:26;102042.16;;;6.57;58.30
71384;BME280;67558;52.166;5.004;2023-04-26T02:11:53;102041.97;;;6.59;58.61
71384;BME280;67558;52.166;5.004;2023-04-26T02:14:18;102031.75;;;6.49;58.13
71384;BME280;67558;52.166;5.004;2023-04-26T02:16:44;102033.19;;;6.52;58.64
71384;BME280;67558;52.166;5.004;2023-04-26T02:19:10;102031.56;;;6.44;58.96
71384;BME280;67558;52.166;5.004;2023-04-26T02:21:53;102029.53;;;6.40;59.20
71384;BME280;67558;52.166;5.004;2023-04-26T02:24:20;102020.34;;;6.35;58.69
71384;BME280;67558;52.166;5.004;2023-04-26T02:26:47;102037.31;;;6.48;59.01
71384;BME280;67558;52.166;5.004;2023-04-26T02:29:13;102037.09;;;6.43;59.09
71384;BME280;67558;52.166;5.004;2023-04-26T02:31:40;102031.38;;;6.46;58.79
71384;BME280;67558;52.166;5.004;2023-04-26T02:34:06;102043.44;;;6.48;58.60
71384;BME280;67558;52.166;5.004;2023-04-26T02:36:32;102017.50;;;6.30;58.69
71384;BME280;67558;52.166;5.004;2023-04-26T02:38:58;102026.47;;;6.36;59.21
71384;BME280;67558;52.166;5.004;2023-04-26T02:41:24;102025.47;;;6.30;59.21
71384;BME280;67558;52.166;5.004;2023-04-26T02:43:51;102039.97;;;6.41;59.18
71384;BME280;67558;52.166;5.004;2023-04-26T02:46:17;102028.75;;;6.32;59.14
71384;BME280;67558;52.166;5.004;2023-04-26T02:48:43;102031.78;;;6.36;59.29
71384;BME280;67558;52.166;5.004;2023-04-26T02:51:11;102019.94;;;6.19;59.19
71384;BME280;67558;52.166;5.004;2023-04-26T02:53:37;102040.56;;;6.30;58.95
71384;BME280;67558;52.166;5.004;2023-04-26T02:56:03;102022.81;;;6.17;59.04
71384;BME280;67558;52.166;5.004;2023-04-26T02:58:32;102031.38;;;6.26;59.20
71384;BME280;67558;52.166;5.004;2023-04-26T03:00:57;102018.09;;;6.19;59.07
71384;BME280;67558;52.166;5.004;2023-04-26T03:03:24;102033.66;;;6.29;59.06
71384;BME280;67558;52.166;5.004;2023-04-26T03:05:50;102030.56;;;6.25;59.11
71384;BME280;67558;52.166;5.004;2023-04-26T03:08:16;102012.19;;;6.10;59.40
71384;BME280;67558;52.166;5.004;2023-04-26T03:10:47;102015.47;;;6.06;59.34
71384;BME280;67558;52.166;5.004;2023-04-26T03:13:12;102003.63;;;5.95;59.40
71384;BME280;67558;52.166;5.004;2023-04-26T03:15:45;102028.56;;;6.01;59.61
71384;BME280;67558;52.166;5.004;2023-04-26T03:18:11;102025.28;;;5.99;59.67
71384;BME280;67558;52.166;5.004;2023-04-26T03:20:37;102032.44;;;6.05;59.23
71384;BME280;67558;52.166;5.004;2023-04-26T03:23:03;102031.59;;;6.04;59.38
71384;BME280;67558;52.166;5.004;2023-04-26T03:25:29;102025.09;;;6.00;59.37
71384;BME280;67558;52.166;5.004;2023-04-26T03:27:55;102018.56;;;5.96;59.65
71384;BME280;67558;52.166;5.004;2023-04-26T03:30:21;102026.72;;;5.94;59.49
71384;BME280;67558;52.166;5.004;2023-04-26T03:32:46;102029.56;;;6.00;59.89
71384;BME280;67558;52.166;5.004;2023-04-26T03:35:12;102032.22;;;6.00;59.83
71384;BME280;67558;52.166;5.004;2023-04-26T03:37:38;102011.38;;;5.90;59.74
71384;BME280;67558;52.166;5.004;2023-04-26T03:40:06;102022.22;;;5.95;59.52
71384;BME280;67558;52.166;5.004;2023-04-26T03:42:36;102012.38;;;5.89;59.82
71384;BME280;67558;52.166;5.004;2023-04-26T03:45:05;101981.53;;;5.74;59.64
71384;BME280;67558;52.166;5.004;2023-04-26T03:47:31;102017.06;;;5.93;59.90
71384;BME280;67558;52.166;5.004;2023-04-26T03:49:57;102019.56;;;5.95;59.77
71384;BME280;67558;52.166;5.004;2023-04-26T03:52:23;102022.00;;;5.97;59.72
71384;BME280;67558;52.166;5.004;2023-04-26T03:54:50;101984.59;;;5.71;59.79
71384;BME280;67558;52.166;5.004;2023-04-26T03:57:16;102032.22;;;6.00;59.68
71384;BME280;67558;52.166;5.004;2023-04-26T03:59:42;102004.81;;;5.86;60.04
71384;BME280;67558;52.166;5.004;2023-04-26T04:02:07;102000.94;;;5.82;60.05
71384;BME280;67558;52.166;5.004;2023-04-26T04:04:33;102031.00;;;5.95;60.43
71384;BME280;67558;52.166;5.004;2023-04-26T04:07:00;102015.63;;;5.84;59.83
71384;BME280;67558;52.166;5.004;2023-04-26T04:09:26;102005.03;;;5.84;60.18
71384;BME280;67558;52.166;5.004;2023-04-26T04:11:52;102015.03;;;5.89;59.86
71384;BME280;67558;52.166;5.004;2023-04-26T04:14:17;102005.03;;;5.84;59.88
71384;BME280;67558;52.166;5.004;2023-04-26T04:16:43;102002.16;;;5.79;59.86
71384;BME280;67558;52.166;5.004;2023-04-26T04:19:09;102010.75;;;5.88;60.16
71384;BME280;67558;52.166;5.004;2023-04-26T04:21:34;102020.34;;;5.89;59.95
71384;BME280;67558;52.166;5.004;2023-04-26T04:24:00;102001.34;;;5.79;60.19
71384;BME280;67558;52.166;5.004;2023-04-26T04:26:26;102011.75;;;5.87;60.39
71384;BME280;67558;52.166;5.004;2023-04-26T04:28:53;102025.88;;;5.87;60.40
71384;BME280;67558;52.166;5.004;2023-04-26T04:31:20;102029.72;;;5.91;60.51
71384;BME280;67558;52.166;5.004;2023-04-26T04:33:48;102013.78;;;5.78;60.61
71384;BME280;67558;52.166;5.004;2023-04-26T04:36:14;102015.06;;;5.95;60.60
71384;BME280;67558;52.166;5.004;2023-04-26T04:38:43;102000.31;;;5.93;60.40
71384;BME280;67558;52.166;5.004;2023-04-26T04:41:09;102019.53;;;6.08;60.27
71384;BME280;67558;52.166;5.004;2023-04-26T04:43:35;101994.22;;;5.99;60.46
71384;BME280;67558;52.166;5.004;2023-04-26T04:46:03;102024.88;;;6.22;60.65
71384;BME280;67558;52.166;5.004;2023-04-26T04:48:28;102032.63;;;6.17;60.59
71384;BME280;67558;52.166;5.004;2023-04-26T04:50:54;102022.81;;;6.17;61.25
71384;BME280;67558;52.166;5.004;2023-04-26T04:53:20;102034.25;;;6.31;61.39
71384;BME280;67558;52.166;5.004;2023-04-26T04:55:46;101990.13;;;6.17;61.39
71384;BME280;67558;52.166;5.004;2023-04-26T04:58:15;102032.72;;;6.68;61.23
71384;BME280;67558;52.166;5.004;2023-04-26T05:00:40;102043.72;;;6.85;60.85
71384;BME280;67558;52.166;5.004;2023-04-26T05:03:06;102021.22;;;6.88;60.73
71384;BME280;67558;52.166;5.004;2023-04-26T05:05:36;102013.81;;;6.96;60.97
71384;BME280;67558;52.166;5.004;2023-04-26T05:08:02;102018.00;;;7.17;60.79
71384;BME280;67558;52.166;5.004;2023-04-26T05:10:28;102029.75;;;7.42;61.19
71384;BME280;67558;52.166;5.004;2023-04-26T05:12:54;102023.75;;;7.53;60.76
71384;BME280;67558;52.166;5.004;2023-04-26T05:15:19;102036.34;;;7.71;60.62
71384;BME280;67558;52.166;5.004;2023-04-26T05:17:45;101999.69;;;7.66;60.87
71384;BME280;67558;52.166;5.004;2023-04-26T05:20:12;102029.53;;;8.00;60.58
71384;BME280;67558;52.166;5.004;2023-04-26T05:22:40;102025.94;;;8.13;60.76
71384;BME280;67558;52.166;5.004;2023-04-26T05:25:08;102033.38;;;8.29;60.33
71384;BME280;67558;52.166;5.004;2023-04-26T05:27:35;102043.34;;;8.40;59.88
71384;BME280;67558;52.166;5.004;2023-04-26T05:30:03;102041.22;;;8.49;59.97
71384;BME280;67558;52.166;5.004;2023-04-26T05:32:29;102046.94;;;8.53;59.86
71384;BME280;67558;52.166;5.004;2023-04-26T05:34:55;102049.09;;;8.63;59.82
71384;BME280;67558;52.166;5.004;2023-04-26T05:37:21;102039.75;;;8.72;59.47
71384;BME280;67558;52.166;5.004;2023-04-26T05:39:47;102022.78;;;8.66;59.52
71384;BME280;67558;52.166;5.004;2023-04-26T05:42:13;102038.56;;;8.86;59.16
71384;BME280;67558;52.166;5.004;2023-04-26T05:44:39;102050.13;;;8.98;58.86
71384;BME280;67558;52.166;5.004;2023-04-26T05:47:05;102000.25;;;8.80;59.25
71384;BME280;67558;52.166;5.004;2023-04-26T05:49:31;102044.75;;;9.17;59.29
71384;BME280;67558;52.166;5.004;2023-04-26T05:51:58;102044.13;;;9.33;59.38
71384;BME280;67558;52.166;5.004;2023-04-26T05:54:25;102040.03;;;9.61;58.84
71384;BME280;67558;52.166;5.004;2023-04-26T05:56:51;102048.56;;;9.81;58.97
71384;BME280;67558;52.166;5.004;2023-04-26T05:59:17;102037.66;;;9.83;58.59
71384;BME280;67558;52.166;5.004;2023-04-26T06:01:44;102044.88;;;9.94;58.50
71384;BME280;67558;52.166;5.004;2023-04-26T06:04:09;102042.19;;;9.94;57.98
71384;BME280;67558;52.166;5.004;2023-04-26T06:06:35;102036.16;;;9.99;57.80
71384;BME280;67558;52.166;5.004;2023-04-26T06:09:02;102038.03;;;9.98;57.67
71384;BME280;67558;52.166;5.004;2023-04-26T06:11:27;102031.50;;;9.94;57.21
71384;BME280;67558;52.166;5.004;2023-04-26T06:13:53;102040.09;;;9.96;57.37
71384;BME280;67558;52.166;5.004;2023-04-26T06:16:21;102049.63;;;9.92;57.29
71384;BME280;67558;52.166;5.004;2023-04-26T06:18:47;102038.94;;;9.92;57.28
71384;BME280;67558;52.166;5.004;2023-04-26T06:21:13;102049.41;;;9.94;57.27
71384;BME280;67558;52.166;5.004;2023-04-26T06:23:39;102057.75;;;9.97;57.15
71384;BME280;67558;52.166;5.004;2023-04-26T06:26:04;102052.63;;;9.96;57.19
71384;BME280;67558;52.166;5.004;2023-04-26T06:28:30;102060.31;;;10.04;57.10
71384;BME280;67558;52.166;5.004;2023-04-26T06:30:58;102061.72;;;10.07;56.89
71384;BME280;67558;52.166;5.004;2023-04-26T06:33:23;102060.09;;;10.05;56.86
71384;BME280;67558;52.166;5.004;2023-04-26T06:35:49;102054.53;;;10.07;56.75
71384;BME280;67558;52.166;5.004;2023-04-26T06:38:15;102074.63;;;10.21;56.55
71384;BME280;67558;52.166;5.004;2023-04-26T06:40:44;102062.78;;;10.17;56.28
71384;BME280;67558;52.166;5.004;2023-04-26T06:43:09;102073.63;;;10.34;56.19
71384;BME280;67558;52.166;5.004;2023-04-26T06:45:35;102069.34;;;10.33;56.02
71384;BME280;67558;52.166;5.004;2023-04-26T06:48:01;102080.38;;;10.49;55.74
71384;BME280;67558;52.166;5.004;2023-04-26T06:50:28;102074.47;;;10.58;55.57
71384;BME280;67558;52.166;5.004;2023-04-26T06:52:54;102074.66;;;10.69;55.41
71384;BME280;67558;52.166;5.004;2023-04-26T06:55:19;102066.84;;;10.79;54.82
71384;BME280;67558;52.166;5.004;2023-04-26T06:57:45;102074.03;;;10.90;54.56
71384;BME280;67558;52.166;5.004;2023-04-26T07:00:11;102057.66;;;10.86;54.53
71384;BME280;67558;52.166;5.004;2023-04-26T07:02:36;102067.28;;;10.99;54.08
71384;BME280;67558;52.166;5.004;2023-04-26T07:05:02;102077.16;;;11.11;54.05
71384;BME280;67558;52.166;5.004;2023-04-26T07:07:28;102075.47;;;11.21;53.63
71384;BME280;67558;52.166;5.004;2023-04-26T07:09:53;102065.09;;;11.25;53.28
71384;BME280;67558;52.166;5.004;2023-04-26T07:12:19;102052.72;;;11.36;53.13
71384;BME280;67558;52.166;5.004;2023-04-26T07:14:45;102062.88;;;11.51;52.75
71384;BME280;67558;52.166;5.004;2023-04-26T07:17:10;102050.31;;;11.51;52.49
71384;BME280;67558;52.166;5.004;2023-04-26T07:19:35;102069.56;;;11.65;51.91
71384;BME280;67558;52.166;5.004;2023-04-26T07:22:01;102066.41;;;11.68;51.67
71384;BME280;67558;52.166;5.004;2023-04-26T07:24:26;102049.44;;;11.62;51.56
71384;BME280;67558;52.166;5.004;2023-04-26T07:26:52;102059.59;;;11.77;51.63
71384;BME280;67558;52.166;5.004;2023-04-26T07:29:17;102064.00;;;11.83;51.45
71384;BME280;67558;52.166;5.004;2023-04-26T07:31:43;102063.28;;;11.88;51.34
71384;BME280;67558;52.166;5.004;2023-04-26T07:34:09;102072.72;;;11.91;51.02
71384;BME280;67558;52.166;5.004;2023-04-26T07:36:34;102072.63;;;11.85;50.56
71384;BME280;67558;52.166;5.004;2023-04-26T07:38:59;102067.88;;;11.76;50.18
71384;BME280;67558;52.166;5.004;2023-04-26T07:41:25;102072.44;;;11.75;50.24
71384;BME280;67558;52.166;5.004;2023-04-26T07:43:50;102077.28;;;11.78;50.14
71384;BME280;67558;52.166;5.004;2023-04-26T07:46:16;102080.88;;;11.84;50.14
71384;BME280;67558;52.166;5.004;2023-04-26T07:48:41;102076.84;;;11.81;49.88
71384;BME280;67558;52.166;5.004;2023-04-26T07:51:08;102058.28;;;11.63;49.46
71384;BME280;67558;52.166;5.004;2023-04-26T07:53:33;102086.88;;;11.74;49.59
71384;BME280;67558;52.166;5.004;2023-04-26T07:55:59;102088.97;;;11.72;49.61
71384;BME280;67558;52.166;5.004;2023-04-26T07:58:25;102081.94;;;11.66;49.45
71384;BME280;67558;52.166;5.004;2023-04-26T08:00:50;102083.47;;;11.62;49.59
71384;BME280;67558;52.166;5.004;2023-04-26T08:03:16;102091.50;;;11.62;49.50
71384;BME280;67558;52.166;5.004;2023-04-26T08:05:42;102099.69;;;11.55;49.51
71384;BME280;67558;52.166;5.004;2023-04-26T08:08:07;102108.00;;;11.42;49.84
71384;BME280;67558;52.166;5.004;2023-04-26T08:10:33;102097.09;;;11.32;49.85
71384;BME280;67558;52.166;5.004;2023-04-26T08:12:58;102047.38;;;10.95;49.72
71384;BME280;67558;52.166;5.004;2023-04-26T08:15:27;102094.94;;;11.17;49.78
71384;BME280;67558;52.166;5.004;2023-04-26T08:17:53;102097.13;;;11.20;49.88
71384;BME280;67558;52.166;5.004;2023-04-26T08:20:18;102091.53;;;11.21;49.77
71384;BME280;67558;52.166;5.004;2023-04-26T08:22:45;102081.56;;;11.17;49.87
71384;BME280;67558;52.166;5.004;2023-04-26T08:25:11;102085.38;;;11.21;49.86
71384;BME280;67558;52.166;5.004;2023-04-26T08:27:36;102088.28;;;11.19;49.77
71384;BME280;67558;52.166;5.004;2023-04-26T08:30:03;102091.19;;;11.18;49.76
71384;BME280;67558;52.166;5.004;2023-04-26T08:32:28;102099.81;;;11.20;49.55
71384;BME280;67558;52.166;5.004;2023-04-26T08:34:53;102102.84;;;11.23;49.70
71384;BME280;67558;52.166;5.004;2023-04-26T08:37:19;102101.06;;;11.29;49.48
71384;BME280;67558;52.166;5.004;2023-04-26T08:39:44;102100.69;;;11.37;49.49
71384;BME280;67558;52.166;5.004;2023-04-26T08:42:15;102087.97;;;11.44;49.71
71384;BME280;67558;52.166;5.004;2023-04-26T08:44:42;102089.28;;;11.59;49.37
71384;BME280;67558;52.166;5.004;2023-04-26T08:47:18;102093.88;;;11.75;48.81
71384;BME280;67558;52.166;5.004;2023-04-26T08:49:50;102088.13;;;11.83;48.83
71384;BME280;67558;52.166;5.004;2023-04-26T08:52:26;102086.94;;;11.91;48.85
71384;BME280;67558;52.166;5.004;2023-04-26T08:54:53;102087.44;;;12.05;48.40
71384;BME280;67558;52.166;5.004;2023-04-26T08:57:19;102087.28;;;12.12;48.26
71384;BME280;67558;52.166;5.004;2023-04-26T08:59:45;102082.94;;;12.27;47.91
71384;BME280;67558;52.166;5.004;2023-04-26T09:02:17;102074.31;;;12.42;48.07
71384;BME280;67558;52.166;5.004;2023-04-26T09:04:43;102081.91;;;12.67;47.49
71384;BME280;67558;52.166;5.004;2023-04-26T09:07:10;102075.44;;;12.85;47.35
71384;BME280;67558;52.166;5.004;2023-04-26T09:09:40;102072.50;;;13.09;46.99
71384;BME280;67558;52.166;5.004;2023-04-26T09:12:07;102074.13;;;13.32;46.73
71384;BME280;67558;52.166;5.004;2023-04-26T09:14:33;102078.00;;;13.46;46.19
71384;BME280;67558;52.166;5.004;2023-04-26T09:16:58;102064.09;;;13.49;45.99
71384;BME280;67558;52.166;5.004;2023-04-26T09:19:38;102067.94;;;13.59;44.43
71384;BME280;67558;52.166;5.004;2023-04-26T09:22:05;102077.97;;;13.68;45.42
71384;BME280;67558;52.166;5.004;2023-04-26T09:24:47;102083.09;;;13.70;45.10
71384;BME280;67558;52.166;5.004;2023-04-26T09:27:14;102080.31;;;13.60;43.68
71384;BME280;67558;52.166;5.004;2023-04-26T09:29:42;102077.66;;;13.38;44.82
71384;BME280;67558;52.166;5.004;2023-04-26T09:32:20;102085.03;;;13.25;45.00
71384;BME280;67558;52.166;5.004;2023-04-26T09:34:46;102084.59;;;13.11;45.10
71384;BME280;67558;52.166;5.004;2023-04-26T09:37:11;102093.09;;;13.03;45.14
71384;BME280;67558;52.166;5.004;2023-04-26T09:39:39;102095.91;;;12.91;45.00
71384;BME280;67558;52.166;5.004;2023-04-26T09:42:06;102086.53;;;12.72;44.76
71384;BME280;67558;52.166;5.004;2023-04-26T09:44:32;102091.28;;;12.65;45.33
71384;BME280;67558;52.166;5.004;2023-04-26T09:49:31;102093.84;;;12.38;45.65
71384;BME280;67558;52.166;5.004;2023-04-26T09:52:03;102102.94;;;12.37;45.81
71384;BME280;67558;52.166;5.004;2023-04-26T09:54:40;102101.16;;;12.25;45.96
71384;BME280;67558;52.166;5.004;2023-04-26T09:57:06;102093.63;;;12.22;46.24
71384;BME280;67558;52.166;5.004;2023-04-26T09:59:47;102102.06;;;12.14;46.20
71384;BME280;67558;52.166;5.004;2023-04-26T10:02:21;102083.91;;;12.04;46.33
71384;BME280;67558;52.166;5.004;2023-04-26T10:04:51;102091.66;;;12.01;46.58
71384;BME280;67558;52.166;5.004;2023-04-26T10:07:22;102093.78;;;11.99;46.63
71384;BME280;67558;52.166;5.004;2023-04-26T10:09:48;102100.09;;;11.93;46.65
71384;BME280;67558;52.166;5.004;2023-04-26T10:12:16;102103.00;;;11.91;46.64
71384;BME280;67558;52.166;5.004;2023-04-26T10:14:42;102096.75;;;11.85;46.85
71384;BME280;67558;52.166;5.004;2023-04-26T10:17:09;102095.59;;;11.81;46.82
71384;BME280;67558;52.166;5.004;2023-04-26T10:19:37;102094.53;;;11.82;46.94
71384;BME280;67558;52.166;5.004;2023-04-26T10:22:12;102080.47;;;11.75;46.72
71384;BME280;67558;52.166;5.004;2023-04-26T10:24:39;102086.19;;;11.79;46.92
71384;BME280;67558;52.166;5.004;2023-04-26T10:27:05;102087.44;;;11.88;46.86
71384;BME280;67558;52.166;5.004;2023-04-26T10:32:21;102078.06;;;11.91;46.91
71384;BME280;67558;52.166;5.004;2023-04-26T10:35:12;102083.03;;;11.99;46.41
71384;BME280;67558;52.166;5.004;2023-04-26T10:40:32;102079.28;;;12.34;46.04
71384;BME280;67558;52.166;5.004;2023-04-26T10:45:33;102093.63;;;12.61;45.83
71384;BME280;67558;52.166;5.004;2023-04-26T10:53:24;102098.38;;;12.93;45.58
71384;BME280;67558;52.166;5.004;2023-04-26T10:55:49;102086.44;;;13.06;45.04
71384;BME280;67558;52.166;5.004;2023-04-26T10:58:31;102074.97;;;13.16;42.48
71384;BME280;67558;52.166;5.004;2023-04-26T11:03:32;102072.34;;;13.43;43.03
71384;BME280;67558;52.166;5.004;2023-04-26T11:05:58;102066.66;;;13.39;43.05
71384;BME280;67558;52.166;5.004;2023-04-26T11:08:27;102058.91;;;13.43;43.08
71384;BME280;67558;52.166;5.004;2023-04-26T11:13:26;102049.09;;;13.59;43.09
71384;BME280;67558;52.166;5.004;2023-04-26T11:15:53;102058.41;;;13.78;43.20
71384;BME280;67558;52.166;5.004;2023-04-26T11:18:23;102056.63;;;13.89;42.69
71384;BME280;67558;52.166;5.004;2023-04-26T11:20:49;102046.47;;;13.96;42.97
71384;BME280;67558;52.166;5.004;2023-04-26T11:23:17;102049.78;;;14.08;42.59
71384;BME280;67558;52.166;5.004;2023-04-26T11:25:43;102056.59;;;14.21;42.16
71384;BME280;67558;52.166;5.004;2023-04-26T11:28:08;102038.53;;;14.17;42.23
71384;BME280;67558;52.166;5.004;2023-04-26T11:30:33;102051.53;;;14.30;42.07
71384;BME280;67558;52.166;5.004;2023-04-26T11:32:59;102051.84;;;14.33;41.99
71384;BME280;67558;52.166;5.004;2023-04-26T11:35:25;102040.75;;;14.30;41.59
71384;BME280;67558;52.166;5.004;2023-04-26T11:37:53;102042.09;;;14.27;42.05
71384;BME280;67558;52.166;5.004;2023-04-26T11:40:21;102049.69;;;14.36;41.98
71384;BME280;67558;52.166;5.004;2023-04-26T11:42:47;102050.78;;;14.40;41.55
71384;BME280;67558;52.166;5.004;2023-04-26T11:45:16;102054.53;;;14.39;41.39
71384;BME280;67558;52.166;5.004;2023-04-26T11:47:43;102051.31;;;14.37;41.44
71384;BME280;67558;52.166;5.004;2023-04-26T11:50:08;102059.94;;;14.39;41.42
71384;BME280;67558;52.166;5.004;2023-04-26T11:52:34;102049.13;;;14.28;41.57
71384;BME280;67558;52.166;5.004;2023-04-26T11:55:04;102054.19;;;14.25;41.17
71384;BME280;67558;52.166;5.004;2023-04-26T11:57:31;102057.19;;;14.28;41.04
71384;BME280;67558;52.166;5.004;2023-04-26T12:00:11;102050.97;;;14.23;40.67
71384;BME280;67558;52.166;5.004;2023-04-26T12:02:42;102047.19;;;14.24;41.45
71384;BME280;67558;52.166;5.004;2023-04-26T12:05:08;102059.13;;;14.38;41.46
71384;BME280;67558;52.166;5.004;2023-04-26T12:07:35;102050.00;;;14.39;41.21
71384;BME280;67558;52.166;5.004;2023-04-26T12:10:16;102051.34;;;14.42;40.58
71384;BME280;67558;52.166;5.004;2023-04-26T12:12:52;102051.38;;;14.47;40.82
71384;BME280;67558;52.166;5.004;2023-04-26T12:15:22;102044.38;;;14.51;40.93
71384;BME280;67558;52.166;5.004;2023-04-26T12:17:56;102058.50;;;14.68;40.77
71384;BME280;67558;52.166;5.004;2023-04-26T12:20:29;102055.84;;;14.73;40.21
71384;BME280;67558;52.166;5.004;2023-04-26T12:23:05;102056.91;;;14.72;40.25
71384;BME280;67558;52.166;5.004;2023-04-26T12:25:32;102056.41;;;14.81;39.97
71384;BME280;67558;52.166;5.004;2023-04-26T12:27:58;102059.09;;;14.76;39.89
71384;BME280;67558;52.166;5.004;2023-04-26T12:30:26;102060.69;;;14.71;40.13
71384;BME280;67558;52.166;5.004;2023-04-26T12:32:52;102061.25;;;14.79;39.85
71384;BME280;67558;52.166;5.004;2023-04-26T12:35:17;102057.13;;;14.61;39.95
71384;BME280;67558;52.166;5.004;2023-04-26T12:37:43;102056.84;;;14.57;40.17
71384;BME280;67558;52.166;5.004;2023-04-26T12:40:09;102063.84;;;14.58;39.99
71384;BME280;67558;52.166;5.004;2023-04-26T12:42:34;102056.91;;;14.72;39.38
71384;BME280;67558;52.166;5.004;2023-04-26T12:45:00;102062.59;;;14.76;39.34
71384;BME280;67558;52.166;5.004;2023-04-26T12:47:25;102048.78;;;14.62;38.98
71384;BME280;67558;52.166;5.004;2023-04-26T12:49:51;102062.22;;;14.57;38.96
71384;BME280;67558;52.166;5.004;2023-04-26T12:52:16;102053.63;;;14.60;39.10
71384;BME280;67558;52.166;5.004;2023-04-26T12:54:41;102048.22;;;14.60;39.01
71384;BME280;67558;52.166;5.004;2023-04-26T12:57:07;102054.91;;;14.52;38.89
71384;BME280;67558;52.166;5.004;2023-04-26T12:59:33;102064.81;;;14.47;39.01
71384;BME280;67558;52.166;5.004;2023-04-26T13:01:58;102059.19;;;14.48;39.18
71384;BME280;67558;52.166;5.004;2023-04-26T13:04:24;102054.53;;;14.39;38.88
71384;BME280;67558;52.166;5.004;2023-04-26T13:06:49;102055.00;;;14.25;39.12
71384;BME280;67558;52.166;5.004;2023-04-26T13:09:14;102033.97;;;14.17;39.31
71384;BME280;67558;52.166;5.004;2023-04-26T13:11:40;102045.66;;;14.33;38.92
71384;BME280;67558;52.166;5.004;2023-04-26T13:14:06;102042.66;;;14.29;38.67
71384;BME280;67558;52.166;5.004;2023-04-26T13:16:34;102053.41;;;14.24;38.39